createdAt,value
2018-11-23T00:01:20.236Z,1.34
2018-11-23T00:03:48.373Z,1.35
2018-11-23T00:06:16.517Z,1.37
2018-11-23T00:08:44.662Z,1.48
2018-11-23T00:11:12.701Z,1.47
2018-11-23T00:13:40.825Z,1.33
2018-11-23T00:16:08.932Z,1.42
2018-11-23T00:18:36.972Z,1.44
2018-11-23T00:21:05.369Z,1.57
2018-11-23T00:23:33.420Z,1.50
2018-11-23T00:26:02.178Z,1.48
2018-11-23T00:28:30.243Z,1.47
2018-11-23T00:30:58.289Z,1.44
2018-11-23T00:33:26.351Z,1.52
2018-11-23T00:35:54.449Z,1.49
2018-11-23T00:38:22.522Z,1.44
2018-11-23T00:40:50.560Z,1.35
2018-11-23T00:43:18.621Z,1.34
2018-11-23T00:45:46.677Z,1.35
2018-11-23T00:48:14.742Z,1.48
2018-11-23T00:50:42.840Z,1.43
2018-11-23T00:53:10.908Z,1.45
2018-11-23T00:55:39.021Z,1.46
2018-11-23T00:58:07.077Z,1.47
2018-11-23T01:00:35.529Z,1.48
2018-11-23T01:03:04.761Z,1.50
2018-11-23T01:05:32.882Z,1.35
2018-11-23T01:08:01.062Z,1.46
2018-11-23T01:10:29.962Z,1.43
2018-11-23T01:12:58.532Z,1.44
2018-11-23T01:15:26.642Z,1.41
2018-11-23T01:17:54.739Z,1.46
2018-11-23T01:20:24.111Z,1.47
2018-11-23T01:22:52.683Z,1.44
2018-11-23T01:25:21.785Z,1.36
2018-11-23T01:27:51.003Z,1.37
2018-11-23T01:30:24.170Z,1.31
2018-11-23T01:32:52.296Z,1.29
2018-11-23T01:35:20.370Z,1.26
2018-11-23T01:37:48.470Z,1.27
2018-11-23T01:40:21.082Z,1.32
2018-11-23T01:42:49.233Z,1.35
2018-11-23T01:45:17.671Z,1.30
2018-11-23T01:47:45.753Z,1.35
2018-11-23T01:50:16.170Z,1.37
2018-11-23T01:52:45.558Z,1.48
2018-11-23T01:55:14.419Z,1.39
2018-11-23T01:57:42.937Z,1.37
2018-11-23T02:00:15.351Z,1.39
2018-11-23T02:02:43.724Z,1.40
2018-11-23T02:05:11.946Z,1.45
2018-11-23T02:07:40.139Z,1.43
2018-11-23T02:10:09.375Z,1.38
2018-11-23T02:12:37.490Z,1.31
2018-11-23T02:15:08.393Z,1.31
2018-11-23T02:17:36.492Z,1.22
2018-11-23T02:20:06.305Z,1.29
2018-11-23T02:22:34.385Z,1.15
2018-11-23T02:25:02.510Z,1.20
2018-11-23T02:27:30.613Z,1.15
2018-11-23T02:29:58.735Z,1.25
2018-11-23T02:32:26.843Z,1.21
2018-11-23T02:34:57.804Z,1.32
2018-11-23T02:37:25.930Z,1.25
2018-11-23T02:39:54.067Z,1.13
2018-11-23T02:42:22.118Z,1.20
2018-11-23T02:44:50.234Z,1.24
2018-11-23T02:47:18.396Z,1.23
2018-11-23T02:49:46.490Z,1.33
2018-11-23T02:52:14.551Z,1.25
2018-11-23T02:54:42.689Z,1.33
2018-11-23T02:57:10.803Z,1.25
2018-11-23T02:59:38.913Z,1.25
2018-11-23T03:02:07.039Z,1.27
2018-11-23T03:04:35.121Z,1.33
2018-11-23T03:07:03.232Z,1.36
2018-11-23T03:09:31.321Z,1.35
2018-11-23T03:11:59.413Z,1.19
2018-11-23T03:14:27.507Z,1.21
2018-11-23T03:16:55.590Z,1.31
2018-11-23T03:19:23.693Z,1.31
2018-11-23T03:21:51.832Z,1.34
2018-11-23T03:24:19.925Z,1.24
2018-11-23T03:26:48.018Z,1.18
2018-11-23T03:29:16.113Z,1.23
2018-11-23T03:31:44.207Z,1.27
2018-11-23T03:34:12.300Z,1.24
2018-11-23T03:36:40.386Z,1.27
2018-11-23T03:39:09.156Z,1.09
2018-11-23T03:41:37.273Z,1.17
2018-11-23T03:44:05.789Z,1.23
2018-11-23T03:46:33.894Z,1.25
2018-11-23T03:49:02.091Z,1.22
2018-11-23T03:51:30.243Z,1.25
2018-11-23T03:53:58.350Z,1.17
2018-11-23T03:56:26.494Z,1.19
2018-11-23T03:58:54.602Z,1.11
2018-11-23T04:01:22.675Z,1.24
2018-11-23T04:03:50.827Z,1.13
2018-11-23T04:06:18.935Z,1.27
2018-11-23T04:08:47.037Z,1.19
2018-11-23T04:11:15.134Z,1.14
2018-11-23T04:13:43.446Z,1.12
2018-11-23T04:16:11.574Z,1.15
2018-11-23T04:18:39.685Z,1.09
2018-11-23T04:21:07.793Z,1.12
2018-11-23T04:23:35.886Z,1.14
2018-11-23T04:26:03.983Z,1.27
2018-11-23T04:28:32.091Z,1.22
2018-11-23T04:31:00.177Z,1.24
2018-11-23T04:33:28.274Z,1.18
2018-11-23T04:35:57.165Z,1.16
2018-11-23T04:38:25.258Z,1.15
2018-11-23T04:40:53.346Z,1.25
2018-11-23T04:43:21.414Z,1.21
2018-11-23T04:45:49.478Z,1.20
2018-11-23T04:48:17.573Z,1.23
2018-11-23T04:50:45.700Z,1.05
2018-11-23T04:53:13.774Z,1.09
2018-11-23T04:55:41.915Z,1.11
2018-11-23T04:58:10.008Z,1.03
2018-11-23T05:00:38.139Z,1.07
2018-11-23T05:03:06.278Z,1.10
2018-11-23T05:05:34.393Z,1.07
2018-11-23T05:08:02.574Z,1.12
2018-11-23T05:10:30.641Z,1.13
2018-11-23T05:12:58.734Z,1.16
2018-11-23T05:15:26.822Z,1.21
2018-11-23T05:17:54.914Z,1.22
2018-11-23T05:20:23.009Z,1.07
2018-11-23T05:22:51.122Z,1.08
2018-11-23T05:25:19.933Z,1.04
2018-11-23T05:27:48.026Z,1.05
2018-11-23T05:30:18.342Z,1.08
2018-11-23T05:32:46.516Z,1.15
2018-11-23T05:35:15.631Z,1.15
2018-11-23T05:37:43.759Z,1.13
2018-11-23T05:40:14.039Z,1.17
2018-11-23T05:42:42.153Z,1.16
2018-11-23T05:45:13.585Z,1.12
2018-11-23T05:47:41.681Z,1.17
2018-11-23T05:50:13.205Z,1.19
2018-11-23T05:52:41.580Z,1.03
2018-11-23T05:55:10.273Z,1.10
2018-11-23T05:57:38.543Z,1.10
2018-11-23T06:00:09.598Z,1.14
2018-11-23T06:02:37.701Z,1.07
2018-11-23T06:05:06.371Z,1.12
2018-11-23T06:07:34.474Z,1.16
2018-11-23T06:10:02.611Z,1.25
2018-11-23T06:12:30.778Z,1.30
2018-11-23T06:14:58.837Z,1.27
2018-11-23T06:17:26.921Z,1.27
2018-11-23T06:19:55.057Z,1.20
2018-11-23T06:22:23.282Z,1.07
2018-11-23T06:24:51.361Z,1.20
2018-11-23T06:27:19.438Z,1.09
2018-11-23T06:29:47.514Z,1.08
2018-11-23T06:32:27.218Z,1.22
2018-11-23T06:34:55.333Z,1.19
2018-11-23T06:37:23.474Z,1.09
2018-11-23T06:39:51.634Z,1.17
2018-11-23T06:42:19.779Z,1.17
2018-11-23T06:44:47.942Z,1.23
2018-11-23T06:47:16.079Z,1.12
2018-11-23T06:49:45.066Z,1.26
2018-11-23T06:52:13.201Z,1.24
2018-11-23T06:54:41.303Z,1.31
2018-11-23T06:57:09.432Z,1.26
2018-11-23T06:59:37.522Z,1.24
2018-11-23T07:02:06.278Z,1.23
2018-11-23T07:04:34.396Z,1.18
2018-11-23T07:07:02.505Z,1.17
2018-11-23T07:09:30.582Z,1.20
2018-11-23T07:11:58.725Z,1.24
2018-11-23T07:14:26.855Z,1.24
2018-11-23T07:16:55.254Z,1.13
2018-11-23T07:19:23.938Z,1.16
2018-11-23T07:21:52.095Z,1.13
2018-11-23T07:24:20.206Z,1.14
2018-11-23T07:26:48.296Z,1.25
2018-11-23T07:29:16.385Z,1.13
2018-11-23T07:31:44.502Z,1.06
2018-11-23T07:34:12.663Z,1.12
2018-11-23T07:36:40.783Z,1.12
2018-11-23T07:39:19.072Z,1.15
2018-11-23T07:42:20.927Z,1.13
2018-11-23T07:44:49.098Z,1.16
2018-11-23T07:47:17.179Z,1.02
2018-11-23T07:49:46.302Z,1.11
2018-11-23T07:52:15.170Z,1.14
2018-11-23T07:54:43.412Z,1.18
2018-11-23T07:57:11.904Z,1.19
2018-11-23T07:59:40.159Z,1.26
2018-11-23T08:02:10.007Z,1.29
2018-11-23T08:04:39.012Z,1.26
2018-11-23T08:07:08.307Z,1.33
2018-11-23T08:09:36.550Z,1.25
2018-11-23T08:12:05.501Z,1.21
2018-11-23T08:14:33.613Z,1.19
2018-11-23T08:17:01.746Z,1.27
2018-11-23T08:19:30.862Z,1.38
2018-11-23T08:21:59.052Z,1.36
2018-11-23T08:24:27.881Z,1.17
2018-11-23T08:26:56.721Z,1.26
2018-11-23T08:29:24.886Z,1.21
2018-11-23T08:31:53.677Z,1.28
2018-11-23T08:34:21.838Z,1.20
2018-11-23T08:36:49.977Z,1.20
2018-11-23T08:39:18.054Z,1.17
2018-11-23T08:41:46.138Z,1.16
2018-11-23T08:44:14.202Z,1.06
2018-11-23T08:46:42.338Z,1.18
2018-11-23T08:49:10.446Z,1.30
2018-11-23T08:51:38.539Z,1.46
2018-11-23T08:54:06.681Z,1.44
2018-11-23T08:56:34.844Z,1.51
2018-11-23T08:59:02.944Z,1.41
2018-11-23T09:01:31.339Z,1.34
2018-11-23T09:03:59.427Z,1.26
2018-11-23T09:06:27.533Z,1.27
2018-11-23T09:08:55.612Z,1.35
2018-11-23T09:11:23.737Z,1.42
2018-11-23T09:13:51.889Z,1.41
2018-11-23T09:16:19.981Z,1.46
2018-11-23T09:18:48.081Z,1.47
2018-11-23T09:21:16.178Z,1.45
2018-11-23T09:23:45.097Z,1.48
2018-11-23T09:26:13.250Z,1.54
2018-11-23T09:28:41.342Z,1.59
2018-11-23T09:31:09.610Z,1.52
2018-11-23T09:38:31.043Z,1.65
2018-11-23T09:40:59.150Z,1.39
2018-11-23T09:43:27.297Z,1.40
2018-11-23T09:45:55.442Z,1.33
2018-11-23T09:48:23.513Z,1.37
2018-11-23T09:50:51.582Z,1.45
2018-11-23T09:53:19.724Z,1.53
2018-11-23T09:55:47.936Z,1.57
2018-11-23T09:58:16.021Z,1.56
2018-11-23T10:00:44.217Z,1.60
2018-11-23T10:03:12.311Z,1.55
2018-11-23T10:05:40.438Z,1.62
2018-11-23T10:08:08.731Z,1.69
2018-11-23T10:10:36.816Z,1.69
2018-11-23T10:13:05.013Z,1.73
2018-11-23T10:15:33.664Z,1.66
2018-11-23T10:18:02.305Z,1.64
2018-11-23T10:20:31.551Z,1.62
2018-11-23T10:22:59.716Z,1.57
2018-11-23T10:25:29.192Z,1.65
2018-11-23T10:27:57.550Z,1.58
2018-11-23T10:30:27.863Z,1.50
2018-11-23T10:32:57.518Z,1.53
2018-11-23T10:35:26.132Z,1.47
2018-11-23T10:37:55.685Z,1.51
2018-11-23T10:40:25.210Z,1.55
2018-11-23T10:42:53.465Z,1.60
2018-11-23T10:45:23.821Z,1.70
2018-11-23T10:47:52.730Z,1.64
2018-11-23T10:50:22.226Z,1.71
2018-11-23T10:52:50.585Z,1.79
2018-11-23T10:55:20.715Z,1.79
2018-11-23T10:57:49.019Z,1.66
2018-11-23T11:00:23.235Z,1.80
2018-11-23T11:02:57.829Z,1.77
2018-11-23T11:05:29.040Z,1.83
2018-11-23T11:07:58.602Z,1.64
2018-11-23T11:10:26.729Z,1.71
2018-11-23T11:12:54.806Z,1.71
2018-11-23T11:15:22.959Z,1.79
2018-11-23T11:17:51.118Z,1.81
2018-11-23T11:20:19.639Z,1.80
2018-11-23T11:22:47.793Z,1.93
2018-11-23T11:25:15.896Z,1.74
2018-11-23T11:27:43.998Z,1.68
2018-11-23T11:30:14.777Z,1.72
2018-11-23T11:32:43.253Z,1.76
2018-11-23T11:35:12.074Z,1.80
2018-11-23T11:37:41.597Z,1.77
2018-11-23T11:40:12.709Z,1.87
2018-11-23T11:42:41.523Z,1.86
2018-11-23T11:45:11.778Z,1.83
2018-11-23T11:47:40.122Z,1.84
2018-11-23T11:50:09.663Z,1.80
2018-11-23T11:52:38.921Z,1.89
2018-11-23T11:55:08.557Z,1.90
2018-11-23T11:57:36.673Z,1.92
2018-11-23T12:00:05.159Z,1.92
2018-11-23T12:02:33.272Z,2.11
2018-11-23T12:05:01.371Z,2.19
2018-11-23T12:07:29.502Z,2.25
2018-11-23T12:09:57.623Z,2.27
2018-11-23T12:12:25.797Z,2.35
2018-11-23T12:14:53.915Z,2.42
2018-11-23T12:17:22.474Z,2.51
2018-11-23T12:19:50.570Z,2.48
2018-11-23T12:22:18.768Z,2.29
2018-11-23T12:24:46.889Z,2.15
2018-11-23T12:27:15.067Z,2.11
2018-11-23T12:29:43.170Z,2.13
2018-11-23T12:32:11.271Z,2.15
2018-11-23T12:34:39.558Z,2.19
2018-11-23T12:37:07.992Z,2.14
2018-11-23T12:39:36.218Z,2.10
2018-11-23T12:42:04.314Z,2.16
2018-11-23T12:44:32.438Z,2.34
2018-11-23T12:47:00.603Z,2.38
2018-11-23T12:49:28.726Z,2.46
2018-11-23T12:51:56.842Z,2.28
2018-11-23T12:54:24.935Z,2.16
2018-11-23T12:56:53.094Z,2.15
2018-11-23T12:59:21.188Z,2.24
2018-11-23T13:01:49.305Z,2.32
2018-11-23T13:04:17.416Z,2.43
2018-11-23T13:06:45.576Z,2.48
2018-11-23T13:09:13.698Z,2.59
2018-11-23T13:11:42.653Z,2.42
2018-11-23T13:14:10.832Z,2.49
2018-11-23T13:16:39.191Z,2.33
2018-11-23T13:19:07.310Z,2.23
2018-11-23T13:21:35.418Z,2.26
2018-11-23T13:24:03.582Z,2.29
2018-11-23T13:26:32.089Z,2.20
2018-11-23T13:29:10.905Z,2.29
2018-11-23T13:31:28.778Z,2.33
2018-11-23T13:33:56.910Z,2.36
2018-11-23T13:36:25.034Z,2.51
2018-11-23T13:38:53.163Z,2.48
2018-11-23T13:41:21.238Z,2.37
2018-11-23T13:43:49.331Z,2.55
2018-11-23T13:46:17.446Z,2.61
2018-11-23T13:48:45.551Z,2.71
2018-11-23T13:51:13.675Z,2.72
2018-11-23T13:53:42.485Z,2.74
2018-11-23T13:56:10.745Z,2.70
2018-11-23T13:58:38.874Z,2.72
2018-11-23T14:01:07.085Z,2.67
2018-11-23T14:03:35.186Z,2.66
2018-11-23T14:06:03.366Z,2.48
2018-11-23T14:08:31.566Z,2.45
2018-11-23T14:10:59.724Z,2.52
2018-11-23T14:13:27.933Z,2.61
2018-11-23T14:15:56.187Z,2.66
2018-11-23T14:18:24.430Z,2.70
2018-11-23T14:20:52.590Z,2.76
2018-11-23T14:23:20.701Z,2.63
2018-11-23T14:25:48.787Z,2.65
2018-11-23T14:28:16.966Z,2.70
2018-11-23T14:30:45.079Z,2.72
2018-11-23T14:33:13.159Z,2.56
2018-11-23T14:35:41.264Z,2.44
2018-11-23T14:38:09.364Z,2.49
2018-11-23T14:40:37.494Z,2.51
2018-11-23T14:43:05.577Z,2.62
2018-11-23T14:45:34.862Z,2.73
2018-11-23T14:48:06.658Z,2.75
2018-11-23T14:50:39.623Z,2.57
2018-11-23T14:53:07.735Z,2.53
2018-11-23T14:55:36.109Z,2.64
2018-11-23T14:58:04.205Z,2.55
2018-11-23T15:00:34.781Z,2.59
2018-11-23T15:03:03.826Z,2.71
2018-11-23T15:05:31.914Z,2.74
2018-11-23T15:08:00.089Z,2.52
2018-11-23T15:10:29.537Z,2.50
2018-11-23T15:12:59.054Z,2.50
2018-11-23T15:15:28.501Z,2.37
2018-11-23T15:17:57.249Z,2.39
2018-11-23T15:20:29.886Z,2.41
2018-11-23T15:22:59.897Z,2.47
2018-11-23T15:25:28.024Z,2.29
2018-11-23T15:27:56.159Z,2.35
2018-11-23T15:30:26.974Z,2.32
2018-11-23T15:32:55.362Z,2.39
2018-11-23T15:35:23.510Z,2.42
2018-11-23T15:37:51.667Z,2.45
2018-11-23T15:40:22.016Z,2.58
2018-11-23T15:42:51.221Z,2.56
2018-11-23T15:45:21.558Z,2.61
2018-11-23T15:47:49.684Z,2.63
2018-11-23T15:50:19.329Z,2.62
2018-11-23T15:52:47.839Z,2.59
2018-11-23T15:55:18.816Z,2.56
2018-11-23T15:57:47.669Z,2.55
2018-11-23T16:00:18.452Z,2.64
2018-11-23T16:02:47.095Z,2.61
2018-11-23T16:05:15.441Z,2.60
2018-11-23T16:07:43.913Z,2.56
2018-11-23T16:10:19.454Z,2.59
2018-11-23T16:12:49.846Z,2.58
2018-11-23T16:15:18.850Z,2.53
2018-11-23T16:17:47.343Z,2.56
2018-11-23T16:20:16.742Z,2.48
2018-11-23T16:22:46.591Z,2.60
2018-11-23T16:25:14.721Z,2.62
2018-11-23T16:27:43.725Z,2.53
2018-11-23T16:30:15.633Z,2.52
2018-11-23T16:32:44.811Z,2.45
2018-11-23T16:35:13.555Z,2.49
2018-11-23T16:37:41.685Z,2.61
2018-11-23T16:40:11.990Z,2.57
2018-11-23T16:42:40.489Z,2.61
2018-11-23T16:45:12.255Z,2.76
2018-11-23T16:47:40.351Z,2.67
2018-11-23T16:50:08.932Z,2.66
2018-11-23T16:52:37.200Z,2.76
2018-11-23T16:55:06.389Z,2.75
2018-11-23T16:57:34.490Z,2.69
2018-11-23T17:00:02.626Z,2.58
2018-11-23T17:02:30.761Z,2.60
2018-11-23T17:04:58.899Z,2.51
2018-11-23T17:07:27.006Z,2.53
2018-11-23T17:09:55.138Z,2.64
2018-11-23T17:12:23.333Z,2.71
2018-11-23T17:14:51.442Z,2.64
2018-11-23T17:17:19.570Z,2.69
2018-11-23T17:19:47.733Z,2.60
2018-11-23T17:22:15.825Z,2.71
2018-11-23T17:24:43.942Z,2.65
2018-11-23T17:27:12.105Z,2.61
2018-11-23T17:29:40.193Z,2.47
2018-11-23T17:32:08.318Z,2.47
2018-11-23T17:34:37.091Z,2.57
2018-11-23T17:37:05.371Z,2.65
2018-11-23T17:39:33.457Z,2.65
2018-11-23T17:42:01.575Z,2.70
2018-11-23T17:44:29.692Z,2.72
2018-11-23T17:46:57.778Z,2.67
2018-11-23T17:49:26.007Z,2.70
2018-11-23T17:51:54.128Z,2.76
2018-11-23T17:54:22.230Z,2.60
2018-11-23T17:56:50.314Z,2.65
2018-11-23T17:59:18.414Z,2.55
2018-11-23T18:01:46.534Z,2.63
2018-11-23T18:04:14.618Z,2.66
2018-11-23T18:06:42.730Z,2.67
2018-11-23T18:09:10.813Z,2.62
2018-11-23T18:11:39.051Z,2.58
2018-11-23T18:14:07.191Z,2.67
2018-11-23T18:16:35.347Z,2.72
2018-11-23T18:19:03.458Z,2.73
2018-11-23T18:21:31.608Z,2.50
2018-11-23T18:23:59.744Z,2.53
2018-11-23T18:26:27.841Z,2.44
2018-11-23T18:28:55.945Z,2.47
2018-11-23T18:31:24.055Z,2.53
2018-11-23T18:33:52.162Z,2.49
2018-11-23T18:36:20.261Z,2.42
2018-11-23T18:38:48.393Z,2.45
2018-11-23T18:41:16.493Z,2.45
2018-11-23T18:43:44.606Z,2.54
2018-11-23T18:46:12.694Z,2.48
2018-11-23T18:48:40.828Z,2.52
2018-11-23T18:51:08.924Z,2.49
2018-11-23T18:53:37.018Z,2.56
2018-11-23T18:56:05.240Z,2.56
2018-11-23T18:58:33.349Z,2.43
2018-11-23T19:01:01.516Z,2.49
2018-11-23T19:03:29.668Z,2.50
2018-11-23T19:05:57.849Z,2.56
2018-11-23T19:08:26.054Z,2.48
2018-11-23T19:10:54.589Z,2.48
2018-11-23T19:13:22.671Z,2.48
2018-11-23T19:15:50.822Z,2.50
2018-11-23T19:18:18.943Z,2.59
2018-11-23T19:20:47.026Z,2.61
2018-11-23T19:23:15.114Z,2.63
2018-11-23T19:25:43.257Z,2.62
2018-11-23T19:28:11.386Z,2.64
2018-11-23T19:30:39.487Z,2.59
2018-11-23T19:33:07.987Z,2.46
2018-11-23T19:35:36.102Z,2.52
2018-11-23T19:38:04.209Z,2.51
2018-11-23T19:40:32.322Z,2.50
2018-11-23T19:43:00.409Z,2.59
2018-11-23T19:45:28.521Z,2.66
2018-11-23T19:47:56.637Z,2.63
2018-11-23T19:50:24.770Z,2.65
2018-11-23T19:52:52.914Z,2.72
2018-11-23T19:55:21.031Z,2.76
2018-11-23T19:57:49.136Z,2.63
2018-11-23T20:00:18.773Z,2.68
2018-11-23T20:02:46.907Z,2.66
2018-11-23T20:05:15.090Z,2.67
2018-11-23T20:07:43.437Z,2.72
2018-11-23T20:10:14.093Z,2.73
2018-11-23T20:12:42.466Z,2.79
2018-11-23T20:15:15.009Z,2.81
2018-11-23T20:17:43.170Z,2.79
2018-11-23T20:20:12.502Z,2.77
2018-11-23T20:22:40.609Z,2.75
2018-11-23T20:25:10.374Z,2.68
2018-11-23T20:27:38.478Z,2.64
2018-11-23T20:30:11.314Z,2.71
2018-11-23T20:32:39.425Z,2.78
2018-11-23T20:35:08.925Z,2.78
2018-11-23T20:37:37.016Z,2.80
2018-11-23T20:40:21.931Z,2.75
2018-11-23T20:42:50.055Z,2.64
2018-11-23T20:45:18.189Z,2.71
2018-11-23T20:47:46.256Z,2.76
2018-11-23T20:50:15.170Z,2.79
2018-11-23T20:52:43.274Z,2.86
2018-11-23T20:55:12.559Z,2.85
2018-11-23T20:57:40.676Z,2.79
2018-11-23T21:00:12.457Z,2.84
2018-11-23T21:02:40.671Z,2.86
2018-11-23T21:05:10.010Z,2.87
2018-11-23T21:07:38.218Z,2.87
2018-11-23T21:10:19.620Z,2.88
2018-11-23T21:12:40.098Z,2.90
2018-11-23T21:15:15.427Z,2.91
2018-11-23T21:17:43.583Z,2.91
2018-11-23T21:20:11.703Z,2.89
2018-11-23T21:22:39.769Z,2.84
2018-11-23T21:25:09.126Z,2.84
2018-11-23T21:27:37.245Z,2.81
2018-11-23T21:30:09.986Z,2.84
2018-11-23T21:32:38.134Z,2.96
2018-11-23T21:35:07.587Z,2.91
2018-11-23T21:37:35.726Z,2.98
2018-11-23T21:40:04.455Z,2.97
2018-11-23T21:42:32.552Z,2.92
2018-11-23T21:45:00.662Z,2.76
2018-11-23T21:47:28.800Z,2.74
2018-11-23T21:49:56.901Z,2.87
2018-11-23T21:52:25.022Z,2.89
2018-11-23T21:54:53.195Z,2.90
2018-11-23T21:57:21.313Z,2.74
2018-11-23T21:59:49.382Z,2.81
2018-11-23T22:02:17.471Z,2.83
2018-11-23T22:04:45.569Z,2.86
2018-11-23T22:07:13.703Z,2.91
2018-11-23T22:09:41.797Z,2.92
2018-11-23T22:12:09.964Z,2.96
2018-11-23T22:14:38.139Z,2.96
2018-11-23T22:17:06.554Z,2.95
2018-11-23T22:19:34.664Z,2.98
2018-11-23T22:22:02.823Z,3.04
2018-11-23T22:24:30.937Z,2.97
2018-11-23T22:26:59.094Z,2.99
2018-11-23T22:29:27.190Z,2.96
2018-11-23T22:31:55.338Z,2.97
2018-11-23T22:34:23.485Z,2.90
2018-11-23T22:36:51.631Z,2.89
2018-11-23T22:39:19.746Z,2.76
2018-11-23T22:41:47.885Z,2.72
2018-11-23T22:44:16.016Z,2.69
2018-11-23T22:46:44.139Z,2.67
2018-11-23T22:49:12.226Z,2.64
2018-11-23T22:52:43.262Z,2.63
2018-11-23T22:55:12.335Z,2.62
2018-11-23T22:57:40.439Z,2.70
2018-11-23T23:00:25.474Z,2.82
2018-11-23T23:02:53.584Z,2.77
2018-11-23T23:05:22.855Z,2.83
2018-11-23T23:07:50.980Z,2.78
2018-11-23T23:10:19.139Z,2.76
2018-11-23T23:12:47.367Z,2.85
2018-11-23T23:15:15.538Z,2.83
2018-11-23T23:17:43.768Z,2.92
2018-11-23T23:20:13.913Z,2.77
2018-11-23T23:22:42.015Z,2.75
2018-11-23T23:25:11.178Z,2.70
2018-11-23T23:27:39.306Z,2.66
2018-11-23T23:30:10.090Z,2.63
2018-11-23T23:32:38.421Z,2.63
2018-11-23T23:35:07.883Z,2.58
2018-11-23T23:37:36.025Z,2.54
2018-11-23T23:40:05.510Z,2.55
2018-11-23T23:42:33.598Z,2.42
2018-11-23T23:45:01.710Z,2.48
2018-11-23T23:47:29.798Z,2.47
2018-11-23T23:49:57.923Z,2.47
2018-11-23T23:52:26.022Z,2.48
2018-11-23T23:54:54.144Z,2.60
2018-11-23T23:57:22.262Z,2.64
2018-11-23T23:59:50.354Z,2.60
